Time;durP1;ratioP1;P1;durP2;ratioP2;P2;SDS_P1;SDS_P2;PMS_P1;PMS_P2;Temp;Humidity;BMP_temperature;BMP_pressure;BME280_temperature;BME280_humidity;BME280_pressure;Samples;Min_cycle;Max_cycle;Signal;HPM_P1;HPM_P2
2023/07/06 00:02:03;;;;;;;3.42;0.88;;;21.70;1.00;;;;;;4955835;23;20054;-48
2023/07/06 00:04:30;;;;;;;3.33;0.70;;;21.70;1.00;;;;;;4913903;29;20051;-49
2023/07/06 00:06:57;;;;;;;1.17;0.50;;;21.70;1.00;;;;;;4915584;29;20046;-50
2023/07/06 00:09:24;;;;;;;1.67;0.80;;;21.70;1.00;;;;;;4915438;29;20044;-49
2023/07/06 00:11:51;;;;;;;2.30;0.70;;;21.70;1.00;;;;;;4915526;29;20044;-50
2023/07/06 00:14:18;;;;;;;1.88;1.15;;;21.70;1.00;;;;;;4915066;29;20105;-48
2023/07/06 00:16:47;;;;;;;2.10;0.60;;;21.70;1.00;;;;;;4915388;29;20033;-48
2023/07/06 00:19:19;;;;;;;3.00;0.75;;;21.70;1.00;;;;;;4915483;29;20555;-48
2023/07/06 00:21:49;;;;;;;2.97;0.70;;;21.70;1.00;;;;;;4917038;29;20090;-49
2023/07/06 00:24:17;;;;;;;2.92;0.80;;;21.60;1.00;;;;;;4918531;29;20127;-48
2023/07/06 00:26:44;;;;;;;4.10;1.48;;;21.60;1.00;;;;;;4920304;29;20048;-51
2023/07/06 00:29:15;;;;;;;2.10;0.70;;;21.60;1.00;;;;;;4921067;29;20056;-48
2023/07/06 00:31:51;;;;;;;1.90;0.75;;;21.60;1.00;;;;;;4914362;29;20063;-50
2023/07/06 00:34:19;;;;;;;2.05;0.80;;;21.60;1.00;;;;;;5171248;23;20044;-50
2023/07/06 00:36:47;;;;;;;2.95;1.15;;;21.60;1.00;;;;;;4918117;29;20052;-48
2023/07/06 00:39:14;;;;;;;1.77;0.80;;;21.60;1.00;;;;;;4916699;29;20076;-49
2023/07/06 00:41:43;;;;;;;1.10;0.80;;;21.60;1.00;;;;;;4924886;29;20036;-49
2023/07/06 00:44:48;;;;;;;1.88;1.05;;;21.60;1.00;;;;;;4926037;29;20032;-48
2023/07/06 00:47:19;;;;;;;2.58;0.70;;;21.60;1.00;;;;;;4919772;29;20572;-51
2023/07/06 00:49:46;;;;;;;3.20;1.10;;;21.60;1.00;;;;;;4925430;29;20051;-52
2023/07/06 00:52:15;;;;;;;1.48;0.80;;;21.60;1.00;;;;;;4927369;29;20416;-51
2023/07/06 00:54:43;;;;;;;3.08;1.23;;;21.60;1.00;;;;;;4913691;29;20075;-51
2023/07/06 00:57:14;;;;;;;1.67;1.05;;;21.60;1.00;;;;;;4929585;29;20043;-50
2023/07/06 00:59:42;;;;;;;1.20;0.80;;;21.60;1.00;;;;;;4933971;29;20048;-50
2023/07/06 01:02:13;;;;;;;1.30;0.73;;;21.60;1.00;;;;;;4932598;29;20078;-51
2023/07/06 01:04:41;;;;;;;1.95;0.55;;;21.60;1.00;;;;;;4932646;29;20528;-51
2023/07/06 01:07:14;;;;;;;2.55;0.70;;;21.60;1.00;;;;;;4932872;29;20048;-51
2023/07/06 01:09:41;;;;;;;;;;;21.60;1.00;;;;;;4934472;29;20040;-49
2023/07/06 01:12:09;;;;;;;1.85;0.60;;;21.60;1.00;;;;;;4932924;29;19923;-49
2023/07/06 01:14:37;;;;;;;0.95;0.52;;;21.50;1.00;;;;;;4932579;29;20059;-49
2023/07/06 01:17:14;;;;;;;1.25;0.60;;;21.50;1.00;;;;;;4934478;29;20066;-49
2023/07/06 01:19:52;;;;;;;1.40;0.88;;;21.60;1.00;;;;;;4932622;29;20040;-52
2023/07/06 01:22:41;;;;;;;2.00;0.82;;;21.50;1.00;;;;;;4936271;29;20047;-50
2023/07/06 01:25:14;;;;;;;3.72;0.90;;;21.50;1.00;;;;;;4937453;29;20044;-49
2023/07/06 01:27:59;;;;;;;2.97;0.50;;;21.50;1.00;;;;;;4936006;29;20127;-48
2023/07/06 01:30:51;;;;;;;3.08;0.95;;;21.50;1.00;;;;;;4935224;29;20612;-51
2023/07/06 01:33:24;;;;;;;2.80;0.60;;;21.50;1.00;;;;;;4916917;29;20052;-47
2023/07/06 01:35:56;;;;;;;1.48;0.50;;;21.50;1.00;;;;;;4917162;29;20140;-52
2023/07/06 01:38:25;;;;;;;2.78;0.70;;;21.50;1.00;;;;;;4916793;29;20060;-49
2023/07/06 01:40:52;;;;;;;1.25;0.80;;;21.50;1.00;;;;;;4918036;29;20059;-53
2023/07/06 01:43:20;;;;;;;2.50;0.65;;;21.50;1.00;;;;;;4918101;29;20551;-52
2023/07/06 01:45:48;;;;;;;1.08;0.47;;;21.50;1.00;;;;;;4916628;29;20437;-54
2023/07/06 01:48:16;;;;;;;1.08;0.57;;;21.50;1.00;;;;;;4919914;29;20051;-49
2023/07/06 01:51:04;;;;;;;3.45;0.55;;;21.50;1.00;;;;;;4925030;29;20051;-50
2023/07/06 01:53:44;;;;;;;1.30;0.70;;;21.50;1.00;;;;;;4941527;29;20094;-49
2023/07/06 01:56:18;;;;;;;2.45;1.25;;;21.50;1.00;;;;;;4940667;29;20439;-49
2023/07/06 01:59:01;;;;;;;2.40;0.95;;;21.50;1.00;;;;;;4940602;29;20054;-51
2023/07/06 02:01:51;;;;;;;2.95;1.10;;;21.50;1.00;;;;;;4941832;29;20044;-51
2023/07/06 02:04:20;;;;;;;2.53;0.68;;;21.50;1.00;;;;;;4940498;29;20095;-49
2023/07/06 02:06:53;;;;;;;3.78;0.75;;;21.50;1.00;;;;;;4941429;29;20067;-50
2023/07/06 02:09:21;;;;;;;3.85;1.08;;;21.50;1.00;;;;;;4942198;29;20071;-50
2023/07/06 02:11:47;;;;;;;1.90;0.60;;;21.50;1.00;;;;;;4939842;29;20040;-51
2023/07/06 02:14:14;;;;;;;3.28;0.77;;;21.50;1.00;;;;;;4942090;29;20043;-49
2023/07/06 02:16:41;;;;;;;3.83;0.70;;;21.50;1.00;;;;;;4942170;29;20050;-49
2023/07/06 02:19:08;;;;;;;3.58;1.08;;;21.50;1.00;;;;;;4941130;29;20177;-49
2023/07/06 02:21:36;;;;;;;2.53;0.75;;;21.50;1.00;;;;;;4940643;29;20044;-49
2023/07/06 02:24:03;;;;;;;2.58;0.88;;;21.50;1.00;;;;;;4940202;29;20126;-49
2023/07/06 02:26:30;;;;;;;1.50;0.70;;;21.40;1.00;;;;;;4941610;29;20063;-53
2023/07/06 02:28:57;;;;;;;1.38;0.88;;;21.50;1.00;;;;;;4940686;29;20040;-49
2023/07/06 02:31:24;;;;;;;4.57;1.00;;;21.50;1.00;;;;;;4940116;29;20408;-54
2023/07/06 02:33:52;;;;;;;3.33;1.08;;;21.50;1.00;;;;;;4937410;29;20432;-49
2023/07/06 02:36:19;;;;;;;4.88;0.75;;;21.40;1.00;;;;;;4921295;29;20091;-49
2023/07/06 02:38:47;;;;;;;1.83;0.93;;;21.40;1.00;;;;;;4928398;29;20046;-50
2023/07/06 02:41:14;;;;;;;1.23;0.73;;;21.40;1.00;;;;;;4923104;29;20104;-49
2023/07/06 02:43:41;;;;;;;2.72;1.42;;;21.40;1.00;;;;;;4931189;29;20456;-49
2023/07/06 02:46:08;;;;;;;2.25;0.73;;;21.40;1.00;;;;;;4934691;29;20052;-49
2023/07/06 02:48:35;;;;;;;1.35;1.00;;;21.40;1.00;;;;;;4940079;29;20046;-49
2023/07/06 02:51:02;;;;;;;3.22;0.80;;;21.40;1.00;;;;;;4940191;29;20047;-50
2023/07/06 02:53:29;;;;;;;1.55;0.80;;;21.40;1.00;;;;;;4939797;29;20048;-49
2023/07/06 02:55:56;;;;;;;2.88;0.88;;;21.40;1.00;;;;;;4934693;29;20039;-48
2023/07/06 02:58:24;;;;;;;3.00;0.95;;;21.40;1.00;;;;;;4939724;29;20047;-52
2023/07/06 03:00:50;;;;;;;3.88;1.02;;;21.40;1.00;;;;;;4939714;29;20075;-49
2023/07/06 03:03:17;;;;;;;3.22;1.02;;;21.40;1.00;;;;;;4939658;29;20492;-49
2023/07/06 03:05:46;;;;;;;3.95;1.25;;;21.40;1.00;;;;;;4938947;29;20074;-49
2023/07/06 03:08:13;;;;;;;3.72;0.98;;;21.40;1.00;;;;;;5151736;23;20108;-49
2023/07/06 03:10:46;;;;;;;3.25;1.02;;;21.40;1.00;;;;;;4927799;29;20083;-50
2023/07/06 03:13:15;;;;;;;1.90;1.00;;;21.40;1.00;;;;;;4931656;29;20456;-50
2023/07/06 03:15:42;;;;;;;2.10;0.95;;;21.40;1.00;;;;;;4938842;29;20051;-49
2023/07/06 03:18:09;;;;;;;2.30;0.70;;;21.40;1.00;;;;;;4938045;29;20084;-50
2023/07/06 03:20:36;;;;;;;1.83;0.93;;;21.40;1.00;;;;;;4939485;29;20054;-49
2023/07/06 03:23:03;;;;;;;3.28;1.33;;;21.40;1.00;;;;;;4939355;29;20035;-51
2023/07/06 03:25:33;;;;;;;2.78;1.20;;;21.40;1.00;;;;;;4934966;29;20052;-49
2023/07/06 03:28:00;;;;;;;1.75;0.90;;;21.40;1.00;;;;;;4939463;29;20647;-49
2023/07/06 03:30:29;;;;;;;2.10;0.85;;;21.40;1.00;;;;;;4938969;29;20562;-50
2023/07/06 03:32:59;;;;;;;2.08;0.95;;;21.40;1.00;;;;;;4940145;29;20063;-49
2023/07/06 03:35:28;;;;;;;4.40;0.70;;;21.40;1.00;;;;;;4940624;29;20043;-50
2023/07/06 03:37:55;;;;;;;1.75;0.85;;;21.40;1.00;;;;;;4939717;29;20139;-51
2023/07/06 03:43:11;;;;;;;1.17;0.70;;;21.30;1.00;;;;;;5055839;23;20048;-50
2023/07/06 03:45:38;;;;;;;3.08;1.33;;;21.30;1.00;;;;;;4891927;29;20131;-50
2023/07/06 03:48:05;;;;;;;1.80;0.75;;;21.30;1.00;;;;;;4905992;29;20552;-49
2023/07/06 03:50:32;;;;;;;3.97;0.68;;;21.30;1.00;;;;;;4908443;29;20044;-51
2023/07/06 03:52:59;;;;;;;3.08;0.95;;;21.30;1.00;;;;;;4917374;29;20507;-48
2023/07/06 03:55:27;;;;;;;1.75;0.85;;;21.30;1.00;;;;;;4917507;29;20067;-51
2023/07/06 03:57:54;;;;;;;4.05;1.45;;;21.30;1.00;;;;;;4920586;29;20040;-51
2023/07/06 04:00:31;;;;;;;2.20;0.95;;;21.30;1.00;;;;;;4921641;29;20060;-48
2023/07/06 04:03:03;;;;;;;4.15;1.02;;;21.30;1.00;;;;;;4921064;29;20044;-48
2023/07/06 04:05:37;;;;;;;2.90;1.00;;;21.30;1.00;;;;;;4921326;29;20049;-50
2023/07/06 04:08:11;;;;;;;1.63;0.60;;;21.30;1.00;;;;;;4920888;29;20041;-48
2023/07/06 04:10:40;;;;;;;2.30;0.65;;;21.30;1.00;;;;;;4916420;29;20062;-51
2023/07/06 04:13:08;;;;;;;1.20;0.60;;;21.30;1.00;;;;;;4918506;29;20052;-48
2023/07/06 04:15:36;;;;;;;0.98;0.65;;;21.30;1.00;;;;;;4920541;29;20048;-50
2023/07/06 04:18:05;;;;;;;3.60;1.27;;;21.30;1.00;;;;;;4921508;29;20036;-50
2023/07/06 04:20:34;;;;;;;7.45;1.08;;;21.30;1.00;;;;;;4921999;29;20119;-49
2023/07/06 04:23:02;;;;;;;5.70;0.85;;;21.30;1.00;;;;;;4925510;29;20044;-47
2023/07/06 04:25:32;;;;;;;11.05;1.48;;;21.30;1.00;;;;;;4922225;29;20597;-49
2023/07/06 04:28:02;;;;;;;5.43;1.35;;;21.30;1.00;;;;;;4902927;29;20036;-49
2023/07/06 04:30:33;;;;;;;4.70;0.95;;;21.30;1.00;;;;;;4920999;29;20048;-48
2023/07/06 04:33:00;;;;;;;4.53;0.90;;;21.30;1.00;;;;;;4914407;29;20040;-51
2023/07/06 04:35:27;;;;;;;8.23;0.82;;;21.20;1.00;;;;;;4921322;29;20048;-48
2023/07/06 04:37:54;;;;;;;2.33;0.95;;;21.30;1.00;;;;;;4921022;29;20051;-48
2023/07/06 04:40:23;;;;;;;3.92;0.85;;;21.20;1.00;;;;;;4921100;29;20052;-49
2023/07/06 04:42:54;;;;;;;3.08;0.90;;;21.20;1.00;;;;;;4904027;29;20119;-48
2023/07/06 04:45:24;;;;;;;4.20;1.17;;;21.20;1.00;;;;;;4920245;29;20059;-48
2023/07/06 04:47:53;;;;;;;8.50;1.00;;;21.20;1.00;;;;;;4917601;29;20048;-48
2023/07/06 04:50:24;;;;;;;3.78;1.42;;;21.20;1.00;;;;;;4915038;29;20489;-51
2023/07/06 04:52:55;;;;;;;3.15;1.10;;;21.20;1.00;;;;;;4912503;29;20044;-50
2023/07/06 04:55:24;;;;;;;2.22;0.70;;;21.20;1.00;;;;;;4915973;29;20040;-49
2023/07/06 04:57:54;;;;;;;1.73;1.48;;;21.20;1.00;;;;;;4916662;29;20063;-48
2023/07/06 05:00:29;;;;;;;2.67;0.80;;;21.20;1.00;;;;;;4917964;29;20048;-49
2023/07/06 05:02:58;;;;;;;2.03;0.77;;;21.20;1.00;;;;;;4918574;29;20233;-49
2023/07/06 05:05:32;;;;;;;1.52;0.80;;;21.20;1.00;;;;;;4918543;29;20048;-48
2023/07/06 05:07:59;;;;;;;4.30;1.08;;;21.20;1.00;;;;;;4918769;29;20489;-50
2023/07/06 05:10:27;;;;;;;1.77;0.60;;;21.20;1.00;;;;;;4918304;29;20131;-48
2023/07/06 05:12:57;;;;;;;8.23;1.42;;;21.20;1.00;;;;;;4918245;29;20072;-49
2023/07/06 05:15:25;;;;;;;1.67;0.73;;;21.20;1.00;;;;;;4965823;23;20465;-50
2023/07/06 05:17:53;;;;;;;3.78;1.10;;;21.20;1.00;;;;;;4918430;29;20051;-48
2023/07/06 05:20:20;;;;;;;2.90;1.00;;;21.20;1.00;;;;;;4916755;29;20067;-51
2023/07/06 05:22:48;;;;;;;2.78;1.45;;;21.20;1.00;;;;;;4898116;29;20520;-48
2023/07/06 05:25:17;;;;;;;1.52;0.95;;;21.20;1.00;;;;;;4899562;29;20079;-49
2023/07/06 05:27:45;;;;;;;3.92;1.13;;;21.20;1.00;;;;;;4899392;29;20497;-48
2023/07/06 05:30:12;;;;;;;4.18;0.80;;;21.20;1.00;;;;;;4899275;29;20089;-47
2023/07/06 05:32:39;;;;;;;1.83;0.60;;;21.20;1.00;;;;;;4899303;29;20044;-48
2023/07/06 05:35:06;;;;;;;3.40;1.05;;;21.20;1.00;;;;;;4899167;29;20489;-50
2023/07/06 05:37:34;;;;;;;2.13;0.63;;;21.20;1.00;;;;;;4899371;29;20064;-48
2023/07/06 05:40:06;;;;;;;6.72;0.95;;;21.20;1.00;;;;;;4899073;29;20037;-49
2023/07/06 05:42:33;;;;;;;1.75;0.80;;;21.20;1.00;;;;;;4898899;29;20037;-48
2023/07/06 05:45:00;;;;;;;2.47;0.90;;;21.20;1.00;;;;;;4899455;29;20504;-51
2023/07/06 05:47:27;;;;;;;3.22;0.90;;;21.20;1.00;;;;;;4899133;29;20420;-48
2023/07/06 05:49:55;;;;;;;3.15;1.10;;;21.20;1.00;;;;;;4898867;29;20412;-49
2023/07/06 05:52:22;;;;;;;3.65;1.15;;;21.20;1.00;;;;;;4898981;29;20053;-48
2023/07/06 05:54:49;;;;;;;1.88;0.70;;;21.20;1.00;;;;;;4898805;29;20049;-48
2023/07/06 05:57:19;;;;;;;1.27;1.15;;;21.20;1.00;;;;;;4898831;29;20056;-51
2023/07/06 05:59:48;;;;;;;1.02;0.60;;;21.20;1.00;;;;;;4898657;29;20104;-48
2023/07/06 06:02:18;;;;;;;3.63;1.08;;;21.20;1.00;;;;;;4898828;29;20093;-48
2023/07/06 06:04:47;;;;;;;3.42;1.15;;;21.20;1.00;;;;;;4898584;29;20424;-48
2023/07/06 06:07:14;;;;;;;1.70;0.73;;;21.20;1.00;;;;;;4897819;29;20037;-49
2023/07/06 06:09:42;;;;;;;3.17;0.98;;;21.20;1.00;;;;;;4898343;29;20049;-51
2023/07/06 06:12:10;;;;;;;3.75;0.80;;;21.20;1.00;;;;;;4898568;29;20493;-49
2023/07/06 06:14:37;;;;;;;3.03;0.60;;;21.20;1.00;;;;;;4898279;29;20055;-51
2023/07/06 06:17:05;;;;;;;1.55;0.60;;;21.20;1.00;;;;;;5063770;23;20054;-50
2023/07/06 06:19:37;;;;;;;2.60;0.80;;;21.20;1.00;;;;;;4936290;29;20059;-50
2023/07/06 06:22:09;;;;;;;2.25;1.38;;;21.20;1.00;;;;;;4921032;29;20123;-49
2023/07/06 06:24:36;;;;;;;4.38;1.10;;;21.30;1.00;;;;;;4917034;29;20444;-48
2023/07/06 06:27:04;;;;;;;3.10;1.10;;;21.30;1.00;;;;;;4909515;29;20411;-49
2023/07/06 06:29:32;;;;;;;1.60;0.70;;;21.30;1.00;;;;;;4917287;29;20044;-48
2023/07/06 06:31:59;;;;;;;3.17;0.88;;;21.30;1.00;;;;;;4916999;29;20068;-49
2023/07/06 06:34:27;;;;;;;3.03;0.90;;;21.30;1.00;;;;;;4916953;29;20460;-50
2023/07/06 06:36:55;;;;;;;2.33;0.82;;;21.30;1.00;;;;;;4916984;29;20440;-50
2023/07/06 06:39:22;;;;;;;3.63;0.90;;;21.30;1.00;;;;;;4916930;29;20059;-48
2023/07/06 06:41:49;;;;;;;2.28;1.30;;;21.30;1.00;;;;;;4916811;29;20048;-48
2023/07/06 06:44:21;;;;;;;2.13;0.70;;;21.30;1.00;;;;;;4915412;29;20052;-48
2023/07/06 06:46:47;;;;;;;3.97;0.93;;;21.30;1.00;;;;;;4917082;29;20040;-53
2023/07/06 06:49:14;;;;;;;2.67;0.80;;;21.30;1.00;;;;;;4916965;29;20039;-49
2023/07/06 06:51:42;;;;;;;3.70;0.77;;;21.30;1.00;;;;;;4916516;29;20052;-50
2023/07/06 06:54:10;;;;;;;1.42;0.70;;;21.30;1.00;;;;;;4916338;29;20037;-49
2023/07/06 06:56:37;;;;;;;1.85;0.75;;;21.30;1.00;;;;;;4916684;29;20507;-48
2023/07/06 06:59:04;;;;;;;1.90;0.88;;;21.30;1.00;;;;;;4908831;29;20044;-52
2023/07/06 07:01:31;;;;;;;1.55;0.77;;;21.30;1.00;;;;;;4916198;29;20048;-48
2023/07/06 07:04:00;;;;;;;1.45;1.10;;;21.30;1.00;;;;;;4916453;29;20047;-50
2023/07/06 07:06:29;;;;;;;1.88;0.63;;;21.30;1.00;;;;;;4916250;29;20178;-50
2023/07/06 07:08:57;;;;;;;4.43;0.95;;;21.30;1.00;;;;;;4915054;29;20059;-48
2023/07/06 07:11:24;;;;;;;1.73;0.80;;;21.30;1.00;;;;;;4916250;29;20465;-51
2023/07/06 07:13:52;;;;;;;1.90;0.70;;;21.30;1.00;;;;;;4916318;29;20468;-52
2023/07/06 07:16:20;;;;;;;1.98;0.63;;;21.40;1.00;;;;;;4916063;29;20058;-53
2023/07/06 07:19:21;;;;;;;2.13;0.65;;;21.40;1.00;;;;;;4877388;29;20138;-49
2023/07/06 07:21:50;;;;;;;1.75;0.60;;;21.40;1.00;;;;;;4878330;29;20049;-49
2023/07/06 07:24:17;;;;;;;2.55;0.73;;;21.40;1.00;;;;;;4878552;29;20075;-50
2023/07/06 07:26:45;;;;;;;1.77;0.52;;;21.40;1.00;;;;;;4879082;29;20123;-49
2023/07/06 07:29:13;;;;;;;3.42;0.80;;;21.40;1.00;;;;;;4878720;29;20041;-47
2023/07/06 07:31:41;;;;;;;1.88;0.60;;;21.40;1.00;;;;;;4878566;29;20052;-48
2023/07/06 07:34:09;;;;;;;2.47;0.85;;;21.40;1.00;;;;;;4871028;29;20045;-50
2023/07/06 07:36:37;;;;;;;2.67;0.80;;;21.40;1.00;;;;;;4878663;29;20045;-50
2023/07/06 07:39:04;;;;;;;1.65;0.85;;;21.40;1.00;;;;;;4878580;29;20120;-49
2023/07/06 07:41:31;;;;;;;1.98;0.68;;;21.40;1.00;;;;;;4878347;29;20045;-49
2023/07/06 07:44:01;;;;;;;2.38;0.80;;;21.50;1.00;;;;;;4885942;29;20045;-48
2023/07/06 07:46:29;;;;;;;2.30;0.80;;;21.40;1.00;;;;;;4878178;29;20037;-48
2023/07/06 07:48:58;;;;;;;1.95;1.17;;;21.50;1.00;;;;;;5240385;23;20048;-48
2023/07/06 07:51:26;;;;;;;2.03;0.63;;;21.50;1.00;;;;;;4915740;29;20412;-52
2023/07/06 07:53:54;;;;;;;1.35;0.70;;;21.50;1.00;;;;;;4918420;29;20135;-53
2023/07/06 07:56:23;;;;;;;2.75;0.70;;;21.50;1.00;;;;;;4917142;29;20490;-52
2023/07/06 07:58:51;;;;;;;2.60;0.65;;;21.50;1.00;;;;;;4916663;29;20071;-53
2023/07/06 08:01:20;;;;;;;1.55;0.70;;;21.50;1.00;;;;;;4915898;29;20043;-48
2023/07/06 08:03:49;;;;;;;1.60;1.00;;;21.50;1.00;;;;;;4914861;29;20497;-52
2023/07/06 08:06:18;;;;;;;1.58;0.70;;;21.50;1.00;;;;;;4896429;29;20048;-54
2023/07/06 08:08:47;;;;;;;2.85;0.60;;;21.50;1.00;;;;;;4896808;29;20069;-53
2023/07/06 08:11:22;;;;;;;2.05;0.63;;;21.50;1.00;;;;;;4896247;29;20508;-51
2023/07/06 08:13:53;;;;;;;2.47;0.73;;;21.50;1.00;;;;;;4896408;29;20049;-53
2023/07/06 08:16:21;;;;;;;4.00;0.82;;;21.50;1.00;;;;;;4896110;29;20055;-54
2023/07/06 08:18:50;;;;;;;1.95;0.55;;;21.50;1.00;;;;;;4896475;29;20123;-55
2023/07/06 08:21:21;;;;;;;1.98;0.57;;;21.50;1.00;;;;;;5183318;23;20052;-54
2023/07/06 08:24:08;;;;;;;2.45;0.70;;;21.50;1.00;;;;;;4913540;29;20048;-53
2023/07/06 08:26:35;;;;;;;0.70;0.40;;;21.50;1.00;;;;;;4915028;29;20054;-52
2023/07/06 08:29:02;;;;;;;1.90;0.70;;;21.50;1.00;;;;;;4915237;29;20407;-52
2023/07/06 08:31:29;;;;;;;1.13;0.57;;;21.60;1.00;;;;;;4918976;29;20131;-55
2023/07/06 08:34:00;;;;;;;1.92;0.52;;;21.60;1.00;;;;;;4918985;29;20500;-52
2023/07/06 08:36:27;;;;;;;3.42;0.88;;;21.60;1.00;;;;;;4918833;29;20469;-54
2023/07/06 08:38:56;;;;;;;1.10;0.52;;;21.60;1.00;;;;;;4918902;29;20087;-52
2023/07/06 08:41:33;;;;;;;1.10;0.50;;;21.60;1.00;;;;;;4918709;29;20096;-51
2023/07/06 08:44:04;;;;;;;3.05;0.80;;;21.60;1.00;;;;;;4919135;29;20440;-55
2023/07/06 08:46:38;;;;;;;2.40;0.68;;;21.60;1.00;;;;;;4919157;29;20088;-54
2023/07/06 08:49:32;;;;;;;3.45;1.13;;;21.60;1.00;;;;;;4919168;29;20068;-52
2023/07/06 08:52:03;;;;;;;2.00;0.70;;;21.60;1.00;;;;;;4919173;29;20116;-53
2023/07/06 08:54:32;;;;;;;3.70;0.90;;;21.60;1.00;;;;;;5074806;23;20171;-51
2023/07/06 08:57:00;;;;;;;3.50;0.70;;;21.60;1.00;;;;;;4918591;29;20044;-54
2023/07/06 08:59:43;;;;;;;2.22;0.98;;;21.60;1.00;;;;;;4918707;29;20463;-49
2023/07/06 09:02:16;;;;;;;1.90;0.73;;;21.60;1.00;;;;;;4907333;29;20542;-48
2023/07/06 09:04:46;;;;;;;0.80;0.50;;;21.60;1.00;;;;;;4899973;29;20284;-49
2023/07/06 09:07:16;;;;;;;3.45;0.90;;;21.60;1.00;;;;;;4911102;29;20048;-48
2023/07/06 09:09:47;;;;;;;2.83;0.57;;;21.60;1.00;;;;;;4918613;29;20040;-49
2023/07/06 09:12:25;;;;;;;2.92;0.77;;;21.60;1.00;;;;;;4918359;29;20048;-48
2023/07/06 09:14:53;;;;;;;6.13;0.80;;;21.70;1.00;;;;;;4917112;29;20056;-48
2023/07/06 09:17:21;;;;;;;1.20;0.70;;;21.70;1.00;;;;;;4918516;29;20439;-50
2023/07/06 09:19:51;;;;;;;1.40;0.77;;;21.70;1.00;;;;;;4918208;29;20564;-48
2023/07/06 09:22:21;;;;;;;1.33;0.70;;;21.70;1.00;;;;;;4918062;29;20064;-52
2023/07/06 09:24:52;;;;;;;1.50;0.65;;;21.70;1.00;;;;;;4918845;29;20040;-53
2023/07/06 09:27:23;;;;;;;1.27;0.70;;;21.70;1.00;;;;;;4918245;29;20088;-51
2023/07/06 09:30:00;;;;;;;2.30;1.10;;;21.70;1.00;;;;;;4918201;29;20044;-48
2023/07/06 09:32:32;;;;;;;1.95;1.08;;;21.70;1.00;;;;;;4918179;29;20044;-49
2023/07/06 09:35:11;;;;;;;1.40;0.80;;;21.70;1.00;;;;;;4916485;29;20047;-50
2023/07/06 09:37:46;;;;;;;1.40;0.70;;;21.70;1.00;;;;;;4899299;29;20055;-49
2023/07/06 09:40:14;;;;;;;2.72;0.90;;;21.70;1.00;;;;;;4909831;29;20119;-54
2023/07/06 09:42:44;;;;;;;1.67;0.55;;;21.70;1.00;;;;;;4915788;29;20051;-52
2023/07/06 09:45:29;;;;;;;2.75;0.60;;;21.70;1.00;;;;;;4917701;29;20044;-49
2023/07/06 09:48:12;;;;;;;2.40;0.70;;;21.70;1.00;;;;;;4917701;29;20048;-55
2023/07/06 09:50:47;;;;;;;2.78;0.65;;;21.70;1.00;;;;;;4917781;29;20052;-51
2023/07/06 09:53:23;;;;;;;1.50;1.20;;;21.70;1.00;;;;;;4917778;29;20048;-53
2023/07/06 09:55:50;;;;;;;1.38;0.77;;;21.70;1.00;;;;;;4981609;23;20443;-49
2023/07/06 09:58:25;;;;;;;2.42;0.77;;;21.70;1.00;;;;;;4936643;29;20087;-51
2023/07/06 10:01:04;;;;;;;2.10;0.77;;;21.70;1.00;;;;;;4936254;29;20044;-49
2023/07/06 10:03:44;;;;;;;1.48;0.65;;;21.80;1.00;;;;;;4936375;29;20050;-48
2023/07/06 10:06:32;;;;;;;1.23;0.60;;;21.80;1.00;;;;;;4936430;29;20036;-52
2023/07/06 10:09:22;;;;;;;1.77;0.80;;;21.80;1.00;;;;;;4936363;29;20103;-48
2023/07/06 10:11:56;;;;;;;2.33;0.90;;;21.80;1.00;;;;;;4936141;29;20050;-50
2023/07/06 10:14:41;;;;;;;2.42;0.90;;;21.80;1.00;;;;;;4936163;29;20104;-51
2023/07/06 10:17:35;;;;;;;2.45;0.50;;;21.80;1.00;;;;;;4936442;29;20046;-48
2023/07/06 10:20:17;;;;;;;2.47;0.57;;;21.80;1.00;;;;;;4936300;29;20496;-52
2023/07/06 10:23:04;;;;;;;2.65;0.82;;;21.80;1.00;;;;;;4935970;29;20121;-52
2023/07/06 10:25:56;;;;;;;4.30;1.02;;;21.80;1.00;;;;;;4936160;29;20488;-51
2023/07/06 10:28:42;;;;;;;1.65;0.77;;;21.80;1.00;;;;;;4936086;29;20070;-51
2023/07/06 10:31:16;;;;;;;1.30;0.55;;;21.80;1.00;;;;;;4935737;29;20392;-49
2023/07/06 10:33:52;;;;;;;2.75;0.60;;;21.80;1.00;;;;;;4935871;29;20075;-50
2023/07/06 10:36:21;;;;;;;1.90;0.75;;;21.80;1.00;;;;;;4935604;29;20448;-51
2023/07/06 10:38:48;;;;;;;2.30;0.77;;;21.80;1.00;;;;;;4935764;29;20419;-48
2023/07/06 10:41:18;;;;;;;1.95;0.98;;;21.80;1.00;;;;;;4935471;29;20419;-50
2023/07/06 10:43:48;;;;;;;2.30;0.70;;;21.90;1.00;;;;;;4935698;29;20043;-48
2023/07/06 10:46:37;;;;;;;4.25;0.80;;;21.80;1.00;;;;;;4935500;29;20044;-54
2023/07/06 10:49:53;;;;;;;1.33;0.50;;;21.90;1.00;;;;;;4935883;29;20047;-53
2023/07/06 10:52:31;;;;;;;5.30;0.90;;;21.90;1.00;;;;;;4930203;29;20066;-54
2023/07/06 10:58:23;;;;;;;2.33;0.80;;;21.90;1.00;;;;;;4962705;23;20516;-54
2023/07/06 11:00:51;;;;;;;1.30;0.60;;;21.90;1.00;;;;;;4930196;29;20051;-53
2023/07/06 11:03:23;;;;;;;2.10;1.13;;;21.90;1.00;;;;;;4916174;29;20047;-51
2023/07/06 11:06:43;;;;;;;1.98;0.82;;;21.90;1.00;;;;;;4916572;29;20556;-50
2023/07/06 11:09:13;;;;;;;2.03;1.08;;;21.90;1.00;;;;;;4842869;29;20045;-53
2023/07/06 11:11:54;;;;;;;1.70;0.50;;;21.90;1.00;;;;;;4913272;29;20055;-51
2023/07/06 11:14:36;;;;;;;3.20;0.70;;;21.80;1.00;;;;;;4916172;29;20115;-49
2023/07/06 11:17:19;;;;;;;1.75;0.80;;;21.90;1.00;;;;;;4916262;29;20128;-51
2023/07/06 11:19:49;;;;;;;;;;;21.90;1.00;;;;;;4917167;29;20447;-48
2023/07/06 11:22:21;;;;;;;1.85;0.57;;;21.90;1.00;;;;;;4915740;29;19985;-49
2023/07/06 11:24:51;;;;;;;3.97;1.45;;;21.90;1.00;;;;;;4916097;29;20532;-50
2023/07/06 11:27:29;;;;;;;1.67;0.68;;;21.90;1.00;;;;;;4914752;29;20066;-48
2023/07/06 11:30:04;;;;;;;2.65;0.88;;;21.90;1.00;;;;;;5037717;23;20051;-49
2023/07/06 11:32:47;;;;;;;1.42;1.08;;;21.90;1.00;;;;;;4934689;29;20051;-49
2023/07/06 11:35:30;;;;;;;4.97;1.35;;;21.90;1.00;;;;;;4934883;29;20653;-50
2023/07/06 11:38:06;;;;;;;;;;;21.90;1.00;;;;;;4935226;29;20039;-54
2023/07/06 11:40:33;;;;;;;1.63;0.70;;;21.90;1.00;;;;;;4934962;29;19955;-51
2023/07/06 11:43:28;;;;;;;3.47;1.00;;;21.90;1.00;;;;;;4934537;29;20036;-49
2023/07/06 11:46:22;;;;;;;1.80;0.73;;;21.90;1.00;;;;;;4934618;29;20445;-51
2023/07/06 11:49:05;;;;;;;2.95;0.70;;;21.90;1.00;;;;;;4934551;29;20048;-50
2023/07/06 11:51:37;;;;;;;1.75;0.60;;;21.90;1.00;;;;;;4934770;29;20036;-54
2023/07/06 11:54:19;;;;;;;1.38;0.65;;;21.90;1.00;;;;;;4934613;29;20043;-48
2023/07/06 11:57:13;;;;;;;2.33;0.80;;;21.90;1.00;;;;;;4934784;29;20078;-49
2023/07/06 11:59:40;;;;;;;2.25;1.02;;;21.90;1.00;;;;;;4949231;23;20052;-51
2023/07/06 12:02:18;;;;;;;4.50;1.27;;;21.90;1.00;;;;;;4915494;29;20092;-47
2023/07/06 12:04:46;;;;;;;1.75;0.82;;;21.90;1.00;;;;;;4914898;29;20051;-53
2023/07/06 12:07:27;;;;;;;3.85;0.82;;;21.80;1.00;;;;;;4914476;29;20552;-49
2023/07/06 12:09:54;;;;;;;3.30;0.90;;;21.90;1.00;;;;;;4915560;29;20040;-49
2023/07/06 12:12:23;;;;;;;3.83;1.92;;;21.90;1.00;;;;;;4915189;29;20099;-51
2023/07/06 12:14:54;;;;;;;4.25;0.98;;;21.90;1.00;;;;;;4915211;29;20043;-52
2023/07/06 12:17:22;;;;;;;3.28;0.90;;;21.90;1.00;;;;;;4915486;29;20044;-50
2023/07/06 12:19:56;;;;;;;2.30;1.17;;;21.90;1.00;;;;;;4915374;29;20440;-50
2023/07/06 12:22:24;;;;;;;2.28;1.52;;;21.90;1.00;;;;;;4915213;29;20501;-52
2023/07/06 12:24:52;;;;;;;2.17;0.80;;;21.90;1.00;;;;;;4915349;29;20575;-53
2023/07/06 12:27:19;;;;;;;2.13;1.00;;;21.90;1.00;;;;;;4915504;29;20432;-47
2023/07/06 12:29:46;;;;;;;1.30;0.60;;;21.90;1.00;;;;;;4910149;29;20048;-49
2023/07/06 12:32:20;;;;;;;1.80;0.90;;;21.90;1.00;;;;;;4914283;29;20047;-48
2023/07/06 12:34:52;;;;;;;4.45;1.02;;;21.90;1.00;;;;;;4915827;29;20051;-51
2023/07/06 12:37:21;;;;;;;2.80;0.93;;;21.90;1.00;;;;;;4915507;29;20036;-51
2023/07/06 12:39:50;;;;;;;3.50;0.93;;;21.90;1.00;;;;;;4915423;29;20123;-48
2023/07/06 12:42:20;;;;;;;2.75;0.90;;;21.90;1.00;;;;;;4915129;29;20099;-54
2023/07/06 12:44:50;;;;;;;3.90;1.10;;;21.90;1.00;;;;;;4915180;29;20042;-51
2023/07/06 12:47:40;;;;;;;4.38;1.20;;;21.90;1.00;;;;;;4915541;29;20044;-52
2023/07/06 12:50:14;;;;;;;3.30;1.17;;;21.90;1.00;;;;;;4915369;29;20489;-50
2023/07/06 12:52:42;;;;;;;2.13;0.85;;;21.90;1.00;;;;;;4915376;29;20045;-51
2023/07/06 12:55:17;;;;;;;2.90;1.33;;;21.90;1.00;;;;;;4915240;29;20416;-52
2023/07/06 12:57:44;;;;;;;4.80;1.25;;;21.90;1.00;;;;;;4915413;29;20112;-50
2023/07/06 13:00:15;;;;;;;5.50;1.20;;;21.90;1.00;;;;;;5025018;23;20509;-47
2023/07/06 13:02:43;;;;;;;1.88;0.90;;;21.90;1.00;;;;;;4915126;29;20119;-52
2023/07/06 13:05:24;;;;;;;4.10;1.42;;;21.90;1.00;;;;;;4915308;29;20119;-48
2023/07/06 13:07:52;;;;;;;3.13;0.85;;;21.90;1.00;;;;;;4915350;29;20048;-49
2023/07/06 13:10:29;;;;;;;4.03;1.38;;;21.90;1.00;;;;;;4915029;29;20099;-48
2023/07/06 13:12:57;;;;;;;2.10;0.80;;;21.90;1.00;;;;;;4915336;29;20059;-49
2023/07/06 13:15:45;;;;;;;2.90;1.02;;;21.90;1.00;;;;;;4899350;29;20516;-49
2023/07/06 13:18:17;;;;;;;2.15;1.40;;;21.90;1.00;;;;;;4919007;29;20095;-49
2023/07/06 13:20:46;;;;;;;2.92;1.25;;;21.90;1.00;;;;;;4922218;29;20047;-49
2023/07/06 13:23:13;;;;;;;3.05;0.95;;;21.90;1.00;;;;;;4922376;29;20044;-48
2023/07/06 13:25:44;;;;;;;2.72;1.08;;;21.90;1.00;;;;;;4921133;29;20115;-49
2023/07/06 13:28:11;;;;;;;4.10;0.93;;;21.90;1.00;;;;;;4921199;29;20032;-49